createdAt,value
2022-11-05T00:01:49.091Z,5.40
2022-11-05T00:04:34.206Z,5.40
2022-11-05T00:07:25.730Z,5.40
2022-11-05T00:10:04.283Z,5.40
2022-11-05T00:12:57.040Z,5.40
2022-11-05T00:15:42.299Z,5.40
2022-11-05T00:18:09.066Z,5.50
2022-11-05T00:20:35.823Z,5.40
2022-11-05T00:23:24.458Z,5.50
2022-11-05T00:25:58.204Z,5.50
2022-11-05T00:28:25.756Z,5.50
2022-11-05T00:30:52.802Z,5.50
2022-11-05T00:33:19.538Z,5.50
2022-11-05T00:35:46.306Z,5.50
2022-11-05T00:38:13.091Z,5.50
2022-11-05T00:40:39.842Z,5.40
2022-11-05T00:43:24.871Z,5.50
2022-11-05T00:45:51.555Z,5.50
2022-11-05T00:48:36.622Z,5.50
2022-11-05T00:51:03.306Z,5.50
2022-11-05T00:53:30.042Z,5.50
2022-11-05T00:55:56.883Z,5.50
2022-11-05T00:58:23.748Z,5.50
2022-11-05T01:00:54.543Z,5.50
2022-11-05T01:03:22.926Z,5.50
2022-11-05T01:05:54.486Z,5.50
2022-11-05T01:08:22.273Z,5.50
2022-11-05T01:10:50.827Z,5.50
2022-11-05T01:13:20.123Z,5.50
2022-11-05T01:15:47.530Z,5.60
2022-11-05T01:18:14.318Z,5.60
2022-11-05T01:20:41.031Z,5.50
2022-11-05T01:23:13.205Z,5.50
2022-11-05T01:25:41.548Z,5.50
2022-11-05T01:28:09.576Z,5.50
2022-11-05T01:30:36.693Z,5.60
2022-11-05T01:33:03.530Z,5.60
2022-11-05T01:35:30.223Z,5.50
2022-11-05T01:37:56.928Z,5.60
2022-11-05T01:40:23.998Z,5.60
2022-11-05T01:42:50.686Z,5.60
2022-11-05T01:45:18.778Z,5.60
2022-11-05T01:47:50.649Z,5.60
2022-11-05T01:50:23.252Z,5.60
2022-11-05T01:52:51.479Z,5.60
2022-11-05T01:55:20.186Z,5.60
2022-11-05T01:57:46.926Z,5.60
2022-11-05T02:00:14.251Z,5.60
2022-11-05T02:02:41.100Z,5.60
2022-11-05T02:05:08.095Z,5.50
2022-11-05T02:07:34.791Z,5.50
2022-11-05T02:10:09.421Z,5.50
2022-11-05T02:12:37.746Z,5.50
2022-11-05T02:15:04.750Z,5.50
2022-11-05T02:17:34.418Z,5.50
2022-11-05T02:20:11.733Z,5.60
2022-11-05T02:22:43.399Z,5.60
2022-11-05T02:25:23.810Z,5.60
2022-11-05T02:27:59.547Z,5.60
2022-11-05T02:30:35.659Z,5.60
2022-11-05T02:33:14.385Z,5.60
2022-11-05T02:36:31.697Z,5.60
2022-11-05T02:39:17.346Z,5.60
2022-11-05T02:42:11.504Z,5.60
2022-11-05T02:44:47.427Z,5.50
2022-11-05T02:47:22.343Z,5.50
2022-11-05T02:49:54.549Z,5.50
2022-11-05T02:52:37.712Z,5.50
2022-11-05T02:55:12.857Z,5.40
2022-11-05T02:57:43.859Z,5.40
2022-11-05T03:00:35.058Z,5.40
2022-11-05T03:03:02.067Z,5.40
2022-11-05T03:05:33.678Z,5.50
2022-11-05T03:08:04.088Z,5.40
2022-11-05T03:11:17.418Z,5.50
2022-11-05T03:13:53.295Z,5.50
2022-11-05T03:16:29.809Z,5.40
2022-11-05T03:19:13.518Z,5.40
2022-11-05T03:21:51.038Z,5.40
2022-11-05T03:24:23.470Z,5.40
2022-11-05T03:27:10.368Z,5.40
2022-11-05T03:29:44.717Z,5.40
2022-11-05T03:32:11.414Z,5.40
2022-11-05T03:35:06.681Z,5.40
2022-11-05T03:37:35.520Z,5.40
2022-11-05T03:40:03.308Z,5.40
2022-11-05T03:42:32.092Z,5.50
2022-11-05T03:44:59.803Z,5.50
2022-11-05T03:47:31.078Z,5.40
2022-11-05T03:50:12.993Z,5.40
2022-11-05T03:52:44.264Z,5.40
2022-11-05T03:55:10.968Z,5.50
2022-11-05T03:57:38.503Z,5.50
2022-11-05T04:00:09.646Z,5.50
2022-11-05T04:02:37.035Z,5.50
2022-11-05T04:05:03.959Z,5.50
2022-11-05T04:07:49.146Z,5.50
2022-11-05T04:10:34.446Z,5.50
2022-11-05T04:13:19.589Z,5.50
2022-11-05T04:16:05.154Z,5.60
2022-11-05T04:18:31.855Z,5.50
2022-11-05T04:21:16.987Z,5.50
2022-11-05T04:24:02.529Z,5.50
2022-11-05T04:26:29.216Z,5.50
2022-11-05T04:29:14.482Z,5.50
2022-11-05T04:31:41.215Z,5.50
2022-11-05T04:34:07.871Z,5.50
2022-11-05T04:36:34.595Z,5.50
2022-11-05T04:39:01.319Z,5.50
2022-11-05T04:41:28.223Z,5.50
2022-11-05T04:43:54.928Z,5.50
2022-11-05T04:46:21.637Z,5.60
2022-11-05T04:48:48.365Z,5.60
2022-11-05T04:51:15.422Z,5.50
2022-11-05T04:53:42.138Z,5.50
2022-11-05T04:56:29.141Z,5.50
2022-11-05T04:58:55.872Z,5.50
2022-11-05T05:01:23.277Z,5.50
2022-11-05T05:03:51.002Z,5.50
2022-11-05T05:06:17.894Z,5.50
2022-11-05T05:08:44.769Z,5.50
2022-11-05T05:11:12.443Z,5.60
2022-11-05T05:13:39.151Z,5.60
2022-11-05T05:16:10.649Z,5.60
2022-11-05T05:18:39.866Z,5.60
2022-11-05T05:21:28.720Z,5.60
2022-11-05T05:23:55.487Z,5.60
2022-11-05T05:26:22.178Z,5.60
2022-11-05T05:28:48.912Z,5.60
2022-11-05T05:31:15.637Z,5.70
2022-11-05T05:33:42.291Z,5.60
2022-11-05T05:36:11.510Z,5.60
2022-11-05T05:38:38.443Z,5.60
2022-11-05T05:41:05.245Z,5.60
2022-11-05T05:43:32.499Z,5.60
2022-11-05T05:46:03.483Z,5.70
2022-11-05T05:48:30.337Z,5.70
2022-11-05T05:51:07.787Z,5.60
2022-11-05T05:53:34.546Z,5.60
2022-11-05T05:56:01.436Z,5.60
2022-11-05T05:58:32.181Z,5.70
2022-11-05T06:01:06.208Z,5.60
2022-11-05T06:03:33.016Z,5.60
2022-11-05T06:06:01.409Z,5.60
2022-11-05T06:08:28.571Z,5.60
2022-11-05T06:10:55.330Z,5.70
2022-11-05T06:13:22.060Z,5.70
2022-11-05T06:15:48.860Z,5.70
2022-11-05T06:18:15.588Z,5.70
2022-11-05T06:20:42.251Z,5.70
2022-11-05T06:23:09.291Z,5.70
2022-11-05T06:25:41.005Z,5.70
2022-11-05T06:28:08.165Z,5.70
2022-11-05T06:30:34.845Z,5.60
2022-11-05T06:33:07.664Z,5.60
2022-11-05T06:35:34.839Z,5.60
2022-11-05T06:38:01.766Z,5.70
2022-11-05T06:40:36.128Z,5.70
2022-11-05T06:43:02.785Z,5.80
2022-11-05T06:45:29.818Z,5.70
2022-11-05T06:47:57.197Z,5.70
2022-11-05T06:50:27.285Z,5.70
2022-11-05T06:53:01.356Z,5.70
2022-11-05T06:55:29.281Z,5.80
2022-11-05T06:57:56.341Z,5.80
2022-11-05T07:00:23.308Z,5.80
2022-11-05T07:02:50.065Z,5.80
2022-11-05T07:05:16.964Z,5.80
2022-11-05T07:07:44.821Z,5.70
2022-11-05T07:10:13.166Z,5.70
2022-11-05T07:12:39.891Z,5.80
2022-11-05T07:15:07.438Z,5.80
2022-11-05T07:17:34.103Z,5.80
2022-11-05T07:20:00.845Z,5.80
2022-11-05T07:22:27.713Z,5.80
2022-11-05T07:24:54.399Z,5.80
2022-11-05T07:27:21.255Z,5.80
2022-11-05T07:29:47.959Z,5.80
2022-11-05T07:32:14.617Z,5.80
2022-11-05T07:34:41.264Z,5.80
2022-11-05T07:37:08.015Z,5.80
2022-11-05T07:39:34.694Z,5.80
2022-11-05T07:42:01.442Z,5.80
2022-11-05T07:44:28.192Z,5.90
2022-11-05T07:46:54.880Z,5.90
2022-11-05T07:49:21.612Z,5.90
2022-11-05T07:51:48.283Z,6.00
2022-11-05T07:54:14.946Z,6.00
2022-11-05T07:56:41.608Z,6.00
2022-11-05T07:59:08.386Z,6.00
2022-11-05T08:01:35.178Z,6.10
2022-11-05T08:04:02.098Z,6.10
2022-11-05T08:06:28.826Z,6.10
2022-11-05T08:08:55.471Z,6.10
2022-11-05T08:11:22.160Z,6.10
2022-11-05T08:13:48.881Z,6.10
2022-11-05T08:16:15.874Z,6.10
2022-11-05T08:18:42.595Z,6.10
2022-11-05T08:21:09.575Z,6.10
2022-11-05T08:23:36.312Z,6.10
2022-11-05T08:26:03.654Z,6.20
2022-11-05T08:28:30.389Z,6.20
2022-11-05T08:30:57.531Z,6.20
2022-11-05T08:33:24.743Z,6.20
2022-11-05T08:35:51.462Z,6.20
2022-11-05T08:38:19.251Z,6.20
2022-11-05T08:40:47.043Z,6.30
2022-11-05T08:43:14.480Z,6.30
2022-11-05T08:45:41.678Z,6.30
2022-11-05T08:48:15.903Z,6.40
2022-11-05T08:50:42.806Z,6.40
2022-11-05T08:53:09.968Z,6.50
2022-11-05T08:55:36.915Z,6.50
2022-11-05T08:58:05.851Z,6.50
2022-11-05T09:00:34.107Z,6.50
2022-11-05T09:03:04.457Z,6.50
2022-11-05T09:05:31.494Z,6.50
2022-11-05T09:08:01.376Z,6.60
2022-11-05T09:10:28.593Z,6.60
2022-11-05T09:12:55.592Z,6.70
2022-11-05T09:15:23.262Z,6.70
2022-11-05T09:17:50.236Z,6.80
2022-11-05T09:20:16.905Z,6.80
2022-11-05T09:22:43.794Z,6.80
2022-11-05T09:25:10.556Z,6.80
2022-11-05T09:27:37.251Z,6.90
2022-11-05T09:30:04.602Z,6.90
2022-11-05T09:32:32.254Z,6.90
2022-11-05T09:35:01.084Z,6.90
2022-11-05T09:37:28.370Z,7.00
2022-11-05T09:39:55.726Z,7.00
2022-11-05T09:42:24.877Z,7.00
2022-11-05T09:45:19.019Z,7.00
2022-11-05T09:47:50.851Z,7.10
2022-11-05T09:50:25.163Z,7.10
2022-11-05T09:52:51.911Z,7.10
2022-11-05T09:55:26.959Z,7.20
2022-11-05T09:57:57.315Z,7.20
2022-11-05T10:00:24.072Z,7.30
2022-11-05T10:02:59.990Z,7.30
2022-11-05T10:05:27.111Z,7.40
2022-11-05T10:07:59.456Z,7.50
2022-11-05T10:10:40.803Z,7.40
2022-11-05T10:13:34.162Z,7.40
2022-11-05T10:16:41.937Z,7.40
2022-11-05T10:19:24.423Z,7.40
2022-11-05T10:22:08.382Z,7.40
2022-11-05T10:24:35.271Z,7.50
2022-11-05T10:27:02.128Z,7.50
2022-11-05T10:29:33.444Z,7.40
2022-11-05T10:32:00.681Z,7.50
2022-11-05T10:34:35.130Z,7.50
2022-11-05T10:37:01.934Z,7.50
2022-11-05T10:39:29.235Z,7.60
2022-11-05T10:42:22.711Z,7.50
2022-11-05T10:45:16.664Z,7.50
2022-11-05T10:47:54.172Z,7.50
2022-11-05T10:50:25.671Z,7.60
2022-11-05T10:52:52.382Z,7.60
2022-11-05T10:55:23.073Z,7.60
2022-11-05T10:57:49.861Z,7.60
2022-11-05T11:00:16.662Z,7.60
2022-11-05T11:02:57.171Z,7.60
2022-11-05T11:05:26.552Z,7.70
2022-11-05T11:07:57.646Z,7.70
2022-11-05T11:10:24.567Z,7.70
2022-11-05T11:12:51.390Z,7.80
2022-11-05T11:15:21.289Z,7.80
2022-11-05T11:17:48.116Z,7.90
2022-11-05T11:20:32.855Z,7.90
2022-11-05T11:23:14.400Z,7.90
2022-11-05T11:26:05.442Z,8.00
2022-11-05T11:28:37.534Z,8.00
2022-11-05T11:31:31.885Z,8.00
2022-11-05T11:34:03.401Z,8.00
2022-11-05T11:36:41.425Z,8.10
2022-11-05T11:39:13.244Z,8.10
2022-11-05T11:41:41.931Z,8.10
2022-11-05T11:44:16.546Z,8.10
2022-11-05T11:46:43.255Z,8.10
2022-11-05T11:49:38.710Z,8.10
2022-11-05T11:52:10.706Z,8.20
2022-11-05T11:54:37.382Z,8.20
2022-11-05T11:57:14.227Z,8.20
2022-11-05T12:00:07.182Z,8.30
2022-11-05T12:03:12.066Z,8.30
2022-11-05T12:06:05.792Z,8.30
2022-11-05T12:09:06.419Z,8.30
2022-11-05T12:11:45.593Z,8.30
2022-11-05T12:14:55.420Z,8.30
2022-11-05T12:17:34.089Z,8.20
2022-11-05T12:20:24.274Z,8.20
2022-11-05T12:23:07.205Z,8.10
2022-11-05T12:25:40.400Z,8.20
2022-11-05T12:28:30.621Z,8.30
2022-11-05T12:31:19.446Z,8.30
2022-11-05T12:33:55.068Z,8.30
2022-11-05T12:37:12.179Z,8.40
2022-11-05T12:40:19.175Z,8.40
2022-11-05T12:42:54.699Z,8.40
2022-11-05T12:45:29.930Z,8.40
2022-11-05T12:48:05.089Z,8.40
2022-11-05T12:50:37.355Z,8.40
2022-11-05T12:53:25.043Z,8.50
2022-11-05T12:55:51.845Z,8.50
2022-11-05T12:58:24.129Z,8.50
2022-11-05T13:01:14.943Z,8.50
2022-11-05T13:03:49.481Z,8.50
2022-11-05T13:06:44.878Z,8.50
2022-11-05T13:09:26.022Z,8.60
2022-11-05T13:12:00.870Z,8.60
2022-11-05T13:14:47.413Z,8.60
2022-11-05T13:17:25.074Z,8.70
2022-11-05T13:19:59.244Z,8.70
2022-11-05T13:22:37.401Z,8.70
2022-11-05T13:25:18.873Z,8.70
2022-11-05T13:27:51.163Z,8.60
2022-11-05T13:30:31.852Z,8.70
2022-11-05T13:33:01.986Z,8.70
2022-11-05T13:35:42.847Z,8.70
2022-11-05T13:38:30.337Z,8.70
2022-11-05T13:41:20.637Z,8.70
2022-11-05T13:44:19.520Z,8.70
2022-11-05T13:46:58.473Z,8.70
2022-11-05T13:49:38.278Z,8.70
2022-11-05T13:52:29.955Z,8.70
2022-11-05T13:55:21.438Z,8.70
2022-11-05T13:57:56.242Z,8.70
2022-11-05T14:00:24.329Z,8.70
2022-11-05T14:02:53.935Z,8.70
2022-11-05T14:05:25.480Z,8.70
2022-11-05T14:07:52.160Z,8.60
2022-11-05T14:10:32.433Z,8.70
2022-11-05T14:12:59.960Z,8.70
2022-11-05T14:15:30.150Z,8.60
2022-11-05T14:17:58.195Z,8.60
2022-11-05T14:20:30.881Z,8.70
2022-11-05T14:23:23.334Z,8.70
2022-11-05T14:25:56.554Z,8.70
2022-11-05T14:28:35.194Z,8.60
2022-11-05T14:31:20.369Z,8.70
2022-11-05T14:34:01.999Z,8.60
2022-11-05T14:36:33.574Z,8.60
2022-11-05T14:39:13.404Z,8.60
2022-11-05T14:42:03.596Z,8.60
2022-11-05T14:44:34.183Z,8.60
2022-11-05T14:47:04.265Z,8.60
2022-11-05T14:49:37.385Z,8.60
2022-11-05T14:52:10.531Z,8.60
2022-11-05T14:54:41.464Z,8.60
2022-11-05T14:57:30.778Z,8.60
2022-11-05T14:59:58.529Z,8.60
2022-11-05T15:02:27.775Z,8.50
2022-11-05T15:05:31.224Z,8.50
2022-11-05T15:07:58.203Z,8.60
2022-11-05T15:10:30.438Z,8.60
2022-11-05T15:13:02.900Z,8.50
2022-11-05T15:15:43.698Z,8.60
2022-11-05T15:18:30.545Z,8.50
2022-11-05T15:20:58.698Z,8.50
2022-11-05T15:23:27.084Z,8.50
2022-11-05T15:26:07.768Z,8.50
2022-11-05T15:28:38.421Z,8.50
2022-11-05T15:31:33.610Z,8.40
2022-11-05T15:34:22.201Z,8.40
2022-11-05T15:37:02.831Z,8.40
2022-11-05T15:39:34.014Z,8.40
2022-11-05T15:42:02.963Z,8.40
2022-11-05T15:44:31.739Z,8.40
2022-11-05T15:47:08.739Z,8.40
2022-11-05T15:49:35.427Z,8.40
2022-11-05T15:52:02.172Z,8.40
2022-11-05T15:54:30.572Z,8.30
2022-11-05T15:56:58.601Z,8.30
2022-11-05T15:59:26.688Z,8.30
2022-11-05T16:01:54.416Z,8.30
2022-11-05T16:04:26.302Z,8.30
2022-11-05T16:06:58.419Z,8.30
2022-11-05T16:09:32.594Z,8.30
2022-11-05T16:12:18.068Z,8.30
2022-11-05T16:14:55.723Z,8.20
2022-11-05T16:17:23.763Z,8.20
2022-11-05T16:19:50.881Z,8.20
2022-11-05T16:22:17.699Z,8.20
2022-11-05T16:24:44.715Z,8.20
2022-11-05T16:27:23.096Z,8.20
2022-11-05T16:29:51.984Z,8.20
2022-11-05T16:32:30.619Z,8.20
2022-11-05T16:35:00.270Z,8.10
2022-11-05T16:37:27.243Z,8.10
2022-11-05T16:39:54.383Z,8.10
2022-11-05T16:42:24.460Z,8.10
2022-11-05T16:44:52.206Z,8.10
2022-11-05T16:47:19.338Z,8.10
2022-11-05T16:49:47.175Z,8.10
2022-11-05T16:52:14.037Z,8.10
2022-11-05T16:54:40.830Z,8.10
2022-11-05T16:57:12.304Z,8.10
2022-11-05T16:59:38.963Z,8.10
2022-11-05T17:02:05.732Z,8.10
2022-11-05T17:04:32.529Z,8.10
2022-11-05T17:06:59.211Z,8.10
2022-11-05T17:09:25.919Z,8.10
2022-11-05T17:11:52.712Z,8.10
2022-11-05T17:14:19.458Z,8.10
2022-11-05T17:16:46.123Z,8.10
2022-11-05T17:19:15.266Z,8.00
2022-11-05T17:21:42.115Z,8.00
2022-11-05T17:24:08.922Z,8.10
2022-11-05T17:26:35.697Z,8.10
2022-11-05T17:29:02.396Z,8.10
2022-11-05T17:31:29.230Z,8.10
2022-11-05T17:33:59.135Z,8.00
2022-11-05T17:36:25.957Z,8.10
2022-11-05T17:38:52.894Z,8.00
2022-11-05T17:41:21.180Z,8.00
2022-11-05T17:43:48.141Z,8.00
2022-11-05T17:46:15.960Z,8.00
2022-11-05T17:48:42.798Z,7.90
2022-11-05T17:51:10.751Z,7.90
2022-11-05T17:53:37.551Z,7.90
2022-11-05T17:56:27.252Z,7.90
2022-11-05T17:59:00.429Z,8.00
2022-11-05T18:01:32.026Z,8.00
2022-11-05T18:04:02.457Z,8.00
2022-11-05T18:06:33.811Z,8.00
2022-11-05T18:09:00.580Z,8.00
2022-11-05T18:11:27.387Z,8.00
2022-11-05T18:13:54.074Z,8.00
2022-11-05T18:16:20.777Z,8.00
2022-11-05T18:18:49.285Z,7.90
2022-11-05T18:21:16.362Z,8.00
2022-11-05T18:23:43.099Z,8.00
2022-11-05T18:26:13.785Z,8.00
2022-11-05T18:28:40.707Z,8.00
2022-11-05T18:31:18.050Z,8.00
2022-11-05T18:33:45.364Z,7.90
2022-11-05T18:36:23.038Z,7.90
2022-11-05T18:38:49.913Z,7.90
2022-11-05T18:41:16.881Z,7.90
2022-11-05T18:43:43.618Z,7.90
2022-11-05T18:46:23.837Z,7.90
2022-11-05T18:48:58.316Z,8.00
2022-11-05T18:51:25.335Z,7.90
2022-11-05T18:53:53.620Z,7.90
2022-11-05T18:56:20.360Z,7.90
2022-11-05T18:58:47.259Z,7.90
2022-11-05T19:01:19.257Z,7.90
2022-11-05T19:03:46.400Z,7.90
2022-11-05T19:06:13.253Z,7.90
2022-11-05T19:08:39.979Z,7.90
2022-11-05T19:11:11.668Z,7.80
2022-11-05T19:13:38.764Z,7.80
2022-11-05T19:16:10.712Z,7.80
2022-11-05T19:18:37.567Z,7.80
2022-11-05T19:21:08.911Z,7.80
2022-11-05T19:23:38.869Z,7.80
2022-11-05T19:26:10.224Z,7.80
2022-11-05T19:28:37.015Z,7.80
2022-11-05T19:31:04.048Z,7.80
2022-11-05T19:33:30.971Z,7.80
2022-11-05T19:35:57.924Z,7.80
2022-11-05T19:38:26.146Z,7.80
2022-11-05T19:40:53.103Z,7.80
2022-11-05T19:43:19.871Z,7.80
2022-11-05T19:45:46.558Z,7.80
2022-11-05T19:48:18.864Z,7.80
2022-11-05T19:50:46.283Z,7.80
2022-11-05T19:53:12.994Z,7.80
2022-11-05T19:55:40.731Z,7.80
2022-11-05T19:58:07.887Z,7.80
2022-11-05T20:00:35.226Z,7.70
2022-11-05T20:03:02.280Z,7.80
2022-11-05T20:05:29.041Z,7.80
2022-11-05T20:07:56.051Z,7.70
2022-11-05T20:10:22.768Z,7.80
2022-11-05T20:12:49.736Z,7.80
2022-11-05T20:15:18.635Z,7.80
2022-11-05T20:17:52.085Z,7.80
2022-11-05T20:20:21.757Z,7.70
2022-11-05T20:22:48.495Z,7.70
2022-11-05T20:25:15.527Z,7.70
2022-11-05T20:27:42.875Z,7.80
2022-11-05T20:30:10.346Z,7.70
2022-11-05T20:32:37.246Z,7.60
2022-11-05T20:35:04.116Z,7.80
2022-11-05T20:37:30.939Z,7.70
2022-11-05T20:39:57.728Z,7.70
2022-11-05T20:42:24.565Z,7.60
2022-11-05T20:44:51.429Z,7.70
2022-11-05T20:47:18.304Z,7.70
2022-11-05T20:49:45.143Z,7.70
2022-11-05T20:52:12.236Z,7.70
2022-11-05T20:54:39.055Z,7.70
2022-11-05T20:57:05.864Z,7.60
2022-11-05T20:59:32.625Z,7.60
2022-11-05T21:01:59.552Z,7.60
2022-11-05T21:04:26.294Z,7.60
2022-11-05T21:06:53.570Z,7.60
2022-11-05T21:09:20.424Z,7.60
2022-11-05T21:12:05.566Z,7.60
2022-11-05T21:14:32.293Z,7.60
2022-11-05T21:16:59.034Z,7.60
2022-11-05T21:19:25.799Z,7.60
2022-11-05T21:21:52.468Z,7.60
2022-11-05T21:24:19.145Z,7.60
2022-11-05T21:26:46.324Z,7.60
2022-11-05T21:29:13.128Z,7.50
2022-11-05T21:31:39.900Z,7.50
2022-11-05T21:34:06.614Z,7.50
2022-11-05T21:36:33.670Z,7.60
2022-11-05T21:39:00.344Z,7.60
2022-11-05T21:41:27.043Z,7.60
2022-11-05T21:43:53.764Z,7.60
2022-11-05T21:46:21.336Z,7.60
2022-11-05T21:48:48.070Z,7.50
2022-11-05T21:51:33.437Z,7.50
2022-11-05T21:54:18.457Z,7.60
2022-11-05T21:57:08.174Z,7.60
2022-11-05T21:59:49.109Z,7.60
2022-11-05T22:02:18.202Z,7.60
2022-11-05T22:04:47.155Z,7.60
2022-11-05T22:07:15.615Z,7.60
2022-11-05T22:09:42.470Z,7.60
2022-11-05T22:12:09.320Z,7.60
2022-11-05T22:14:36.038Z,7.60
2022-11-05T22:17:02.825Z,7.60
2022-11-05T22:19:30.660Z,7.60
2022-11-05T22:21:57.392Z,7.60
2022-11-05T22:24:24.228Z,7.60
2022-11-05T22:26:50.917Z,7.60
2022-11-05T22:29:17.814Z,7.60
2022-11-05T22:31:44.626Z,7.60
2022-11-05T22:34:11.592Z,7.60
2022-11-05T22:36:38.382Z,7.60
2022-11-05T22:39:05.315Z,7.60
2022-11-05T22:41:32.149Z,7.70
2022-11-05T22:43:59.062Z,7.60
2022-11-05T22:46:26.630Z,7.70
2022-11-05T22:48:53.461Z,7.70
2022-11-05T22:51:22.348Z,7.70
2022-11-05T22:53:49.071Z,7.70
2022-11-05T22:56:17.711Z,7.70
2022-11-05T22:58:44.552Z,7.70
2022-11-05T23:01:11.912Z,7.70
2022-11-05T23:03:39.463Z,7.70
2022-11-05T23:06:48.278Z,7.70
2022-11-05T23:09:41.337Z,7.70
2022-11-05T23:12:17.979Z,7.60
2022-11-05T23:14:44.697Z,7.60
2022-11-05T23:17:30.204Z,7.70
2022-11-05T23:20:12.070Z,7.60
2022-11-05T23:22:57.331Z,7.70
2022-11-05T23:25:24.182Z,7.60
2022-11-05T23:27:52.030Z,7.60
2022-11-05T23:30:20.915Z,7.60
2022-11-05T23:32:47.886Z,7.60
2022-11-05T23:35:17.459Z,7.60
2022-11-05T23:38:02.694Z,7.60
2022-11-05T23:40:31.454Z,7.60
2022-11-05T23:43:16.698Z,7.60
2022-11-05T23:45:59.284Z,7.60
2022-11-05T23:48:34.096Z,7.60
2022-11-05T23:51:05.995Z,7.60
2022-11-05T23:53:34.299Z,7.70
2022-11-05T23:56:09.272Z,7.80
2022-11-05T23:58:36.377Z,7.70
